Weather History for Soldotna, AK

Change the Weather History Date:

Friday, March 30, 2012

  Actual Average Record
Temperature  
Mean Temperature 30 °F -  
Max Temperature 44 °F 35 °F 48 °F (1961)
Min Temperature 17 °F 16 °F -15 °F (1972)
Degree Days  
Heating Degree Days 34    
Moisture  
Dew Point 23 °F    
Average Humidity 69    
Maximum Humidity 93    
Minimum Humidity 46    
Precipitation  
Precipitation 0.00 in - - ()
Sea Level Pressure  
Sea Level Pressure 29.13 in    
Wind  
Wind Speed 2 mph (WNW)    
Max Wind Speed 10 mph    
Max Gust Speed -    
Visibility 10 miles    
Events      
Averages and records for this station are not official NWS values.
T = Trace of Precipitation, MM = Missing Value Source: NWS Daily Summary

Daily Weather History Graph

Daily Weather History Graph

Search for Another Location

Airport:

Trip Planner

Search our weather history database for the weather conditions in past years. The results will help you decide how hot, cold, wet, or windy it might be!

Date:

Astronomy

Mar. 30, 2012 Rise Set
Actual Time 7:32 AM AKDT 8:45 PM AKDT
Civil Twilight 6:49 AM AKDT 9:29 PM AKDT
Nautical Twilight 5:55 AM AKDT 10:23 PM AKDT
Astronomical Twilight 4:52 AM AKDT 11:27 PM AKDT
Moon 11:32 AM AKDT (3/30) 4:46 AM AKDT (3/30)
Length of Visible Light 14h 39m
Length of Day
13h 13m
Waxing Crescent, 50% of the Moon is Illuminated
Mar 30
Waxing Crescent
Apr 6
Full
Apr 13
Last Quarter
Apr 20
New
Apr 29
First Quarter

Hourly Weather History & Observations

Time (AKDT) Temp. Windchill Dew Point Humidity Pressure Visibility Wind Dir Wind Speed Gust Speed Precip Events Conditions
12:16 AM 26.6 °F - 21.2 °F 80% 29.02 in 10.0 mi Calm Calm - N/A   Clear
12:36 AM 26.6 °F - 21.2 °F 80% 29.02 in 10.0 mi Calm Calm - N/A   Clear
12:56 AM 26.6 °F - 19.4 °F 74% 29.02 in 10.0 mi Calm Calm - N/A   Clear
1:16 AM 26.6 °F - 19.4 °F 74% 29.03 in 10.0 mi Calm Calm - N/A   Clear
1:36 AM 24.8 °F - 19.4 °F 80% 29.03 in 10.0 mi Calm Calm - N/A   Clear
1:56 AM 26.6 °F - 21.2 °F 80% 29.04 in 10.0 mi Calm Calm - N/A   Clear
2:16 AM 24.8 °F - 19.4 °F 80% 29.04 in 10.0 mi Calm Calm - N/A   Clear
2:36 AM 24.8 °F 20.5 °F 19.4 °F 80% 29.04 in 10.0 mi ENE 3.5 mph - N/A   Clear
2:56 AM 23.0 °F 18.4 °F 19.4 °F 86% 29.04 in 10.0 mi ENE 3.5 mph - N/A   Clear
3:16 AM 24.8 °F 19.1 °F 19.4 °F 80% 29.04 in 10.0 mi East 4.6 mph - N/A   Clear
3:36 AM 23.0 °F 18.4 °F 19.4 °F 86% 29.04 in 10.0 mi ENE 3.5 mph - N/A   Clear
3:56 AM 23.0 °F - 19.4 °F 86% 29.05 in 10.0 mi Calm Calm - N/A   Clear
4:36 AM 21.2 °F 14.9 °F 19.4 °F 93% 29.05 in 10.0 mi ENE 4.6 mph - N/A   Clear
4:56 AM 23.0 °F 18.4 °F 19.4 °F 86% 29.05 in 10.0 mi East 3.5 mph - N/A   Clear
5:16 AM 19.4 °F 14.3 °F 17.6 °F 93% 29.05 in 10.0 mi ENE 3.5 mph - N/A   Clear
5:36 AM 19.4 °F 14.3 °F 17.6 °F 93% 29.05 in 10.0 mi East 3.5 mph - N/A   Clear
5:56 AM 19.4 °F - 15.8 °F 86% 29.05 in 10.0 mi Calm Calm - N/A   Clear
6:16 AM 19.4 °F - 15.8 °F 86% 29.06 in 10.0 mi Calm Calm - N/A   Clear
6:36 AM 19.4 °F - 15.8 °F 86% 29.07 in 10.0 mi Calm Calm - N/A   Clear
6:56 AM 17.6 °F - 15.8 °F 93% 29.07 in 10.0 mi Calm Calm - N/A   Clear
7:16 AM 17.6 °F - 12.2 °F 79% 29.08 in 10.0 mi Calm Calm - N/A   Clear
7:36 AM 17.6 °F 12.3 °F 14.0 °F 86% 29.08 in 10.0 mi ENE 3.5 mph - N/A   Clear
7:56 AM 17.6 °F - 14.0 °F 86% 29.08 in 10.0 mi Calm Calm - N/A   Clear
8:16 AM 17.6 °F - 15.8 °F 93% 29.08 in 10.0 mi Calm Calm - N/A   Clear
8:36 AM 17.6 °F - 15.8 °F 93% 29.08 in 10.0 mi Calm Calm - N/A   Clear
8:56 AM 19.4 °F - 17.6 °F 93% 29.09 in 10.0 mi Calm Calm - N/A   Clear
9:16 AM 21.2 °F - 17.6 °F 86% 29.09 in 10.0 mi Calm Calm - N/A   Clear
9:36 AM 23.0 °F - 19.4 °F 86% 29.10 in - Calm Calm - N/A   Unknown
9:56 AM 26.6 °F - 21.2 °F 80% 29.10 in - Calm Calm - N/A   Clear
10:16 AM 28.4 °F - 23.0 °F 80% 29.11 in - Calm Calm - N/A   Clear
10:36 AM 30.2 °F - 23.0 °F 75% 29.11 in 10.0 mi Calm Calm - N/A   Clear
10:56 AM 32.0 °F 28.7 °F 23.0 °F 69% 29.11 in 10.0 mi NW 3.5 mph - N/A   Clear
11:16 AM 37.4 °F 33.8 °F 26.6 °F 65% 29.12 in 10.0 mi WNW 4.6 mph - N/A   Clear
11:36 AM 37.4 °F 33.8 °F 26.6 °F 65% 29.12 in 10.0 mi WNW 4.6 mph - N/A   Clear
11:56 AM 39.2 °F 37.0 °F 26.6 °F 61% 29.13 in 10.0 mi NW 3.5 mph - N/A   Clear
12:16 PM 41.0 °F - 26.6 °F 57% 29.13 in 10.0 mi Calm Calm - N/A   Clear
12:36 PM 41.0 °F 38.0 °F 26.6 °F 57% 29.14 in 10.0 mi West 4.6 mph - N/A   Clear
12:56 PM 42.8 °F 41.1 °F 26.6 °F 53% 29.14 in 10.0 mi West 3.5 mph - N/A   Clear
1:16 PM 42.8 °F 39.3 °F 26.6 °F 53% 29.15 in 10.0 mi West 5.8 mph - N/A   Clear
1:36 PM 42.8 °F 39.3 °F 26.6 °F 53% 29.15 in 10.0 mi West 5.8 mph - N/A   Clear
1:56 PM 44.6 °F 42.2 °F 26.6 °F 49% 29.15 in 10.0 mi West 4.6 mph - N/A   Partly Cloudy
2:16 PM 44.6 °F 42.2 °F 26.6 °F 49% 29.15 in 10.0 mi West 4.6 mph - N/A   Mostly Cloudy
2:36 PM 44.6 °F 39.2 °F 28.4 °F 53% 29.16 in 10.0 mi West 10.4 mph - N/A   Overcast
2:56 PM 44.6 °F 40.7 °F 28.4 °F 53% 29.16 in 10.0 mi West 6.9 mph - N/A   Overcast
3:16 PM 44.6 °F 39.7 °F 28.4 °F 53% 29.17 in 10.0 mi West 9.2 mph - N/A   Overcast
3:36 PM 44.6 °F 40.2 °F 28.4 °F 53% 29.17 in 10.0 mi WNW 8.1 mph - N/A   Scattered Clouds
3:56 PM 44.6 °F 39.7 °F 28.4 °F 53% 29.18 in 10.0 mi NW 9.2 mph - N/A   Clear
4:16 PM 44.6 °F 40.2 °F 28.4 °F 53% 29.18 in 10.0 mi WNW 8.1 mph - N/A   Clear
4:36 PM 44.6 °F 39.2 °F 28.4 °F 53% 29.18 in 10.0 mi West 10.4 mph - N/A   Clear
4:56 PM 44.6 °F 39.7 °F 28.4 °F 53% 29.19 in 10.0 mi West 9.2 mph - N/A   Clear
5:16 PM 42.8 °F 38.0 °F 28.4 °F 57% 29.19 in 10.0 mi West 8.1 mph - N/A   Partly Cloudy
5:36 PM 44.6 °F 40.2 °F 28.4 °F 53% 29.20 in 10.0 mi West 8.1 mph - N/A   Partly Cloudy
5:56 PM 42.8 °F 40.1 °F 26.6 °F 53% 29.21 in 10.0 mi WNW 4.6 mph - N/A   Clear
6:16 PM 44.6 °F 41.4 °F 24.8 °F 46% 29.21 in 10.0 mi WNW 5.8 mph - N/A   Clear
6:36 PM 44.6 °F 42.2 °F 26.6 °F 49% 29.22 in 10.0 mi West 4.6 mph - N/A   Clear
6:56 PM 44.6 °F 43.1 °F 26.6 °F 49% 29.22 in 10.0 mi WNW 3.5 mph - N/A   Partly Cloudy
7:16 PM 44.6 °F 43.1 °F 26.6 °F 49% 29.23 in 10.0 mi NW 3.5 mph - N/A   Scattered Clouds
7:36 PM 44.6 °F - 24.8 °F 46% 29.24 in 10.0 mi Calm Calm - N/A   Partly Cloudy
7:56 PM 42.8 °F 39.3 °F 24.8 °F 49% 29.25 in 10.0 mi West 5.8 mph - N/A   Mostly Cloudy
8:16 PM 42.8 °F 39.3 °F 24.8 °F 49% 29.26 in 10.0 mi West 5.8 mph - N/A   Overcast
8:36 PM 41.0 °F 39.0 °F 24.8 °F 53% 29.27 in 10.0 mi West 3.5 mph - N/A   Overcast
8:56 PM 41.0 °F - 23.0 °F 49% 29.28 in 10.0 mi Calm Calm - N/A   Overcast
9:16 PM 37.4 °F - 24.8 °F 60% 29.29 in 10.0 mi Calm Calm - N/A   Overcast
9:36 PM 37.4 °F - 24.8 °F 60% 29.29 in 10.0 mi Calm Calm - N/A   Overcast
9:56 PM 37.4 °F - 24.8 °F 60% 29.30 in 10.0 mi Calm Calm - N/A   Overcast
10:16 PM 35.6 °F - 26.6 °F 70% 29.31 in 10.0 mi Calm Calm - N/A   Overcast
10:36 PM 37.4 °F - 26.6 °F 65% 29.32 in 10.0 mi Calm Calm - N/A   Overcast
10:56 PM 35.6 °F 32.8 °F 26.6 °F 70% 29.33 in 10.0 mi West 3.5 mph - N/A   Overcast
11:16 PM 35.6 °F - 26.6 °F 70% 29.34 in 10.0 mi Calm Calm - N/A   Overcast
11:36 PM 35.6 °F 32.8 °F 26.6 °F 70% 29.35 in 10.0 mi South 3.5 mph - N/A   Overcast
11:56 PM 39.2 °F 33.6 °F 33.8 °F 81% 29.36 in 10.0 mi South 8.1 mph - N/A   Overcast